Battle Point — NMBY — position and weather

sailwx.info

Track history (hours):
 
Tides and Currents Weather Stations Pressure Air Temp Water Temp Dewpoint Dewpoint Depression Visibility Wind Speed Wind Dir Waves Ship Positions

Battle Point

Last reported at 2014-Nov-23 02:20 UTC. Time now 2014-Nov-27 22:01 UTC.
Position N 47°45' W 122°45'.

Length 57 m; draft 3.2 m.

MMSI: 369970254.

Date/timePositionNaut miles runAvg speedWind from/ knotsBaromVisibWave heightAir tempDewpointWater temp
2014-Nov-23 02:20N 47°45' W 122°45'7 9.6
2014-Nov-23 01:33N 47°51' W 122°38'8 7.8
2014-Nov-23 00:33N 47°59' W 122°38'1110.2
2014-Nov-22 23:31N 48°09' W 122°44'9 9.8
2014-Nov-22 22:33N 48°18' W 122°48'1010.4
2014-Nov-22 21:33N 48°28' W 122°44'1010.5
2014-Nov-22 20:34N 48°38' W 122°44'10 9.8
2014-Nov-22 19:33N 48°47' W 122°52'1110.9
2014-Nov-22 18:33N 48°53' W 123°06'1110.8
2014-Nov-22 17:33N 48°60' W 123°18'1111.2
2014-Nov-22 16:33N 49°07' W 123°32'1010.1
2014-Nov-22 15:33N 49°12' W 123°44'1110.7
2014-Nov-22 14:32N 49°15' W 124°00'3 0.1
2014-Nov-21 03:33N 49°16' W 124°06'6 5.7
2014-Nov-21 02:32N 49°19' W 123°58'0 0.0
2014-Nov-21 01:20N 49°19' W 123°58'3 4.2
2014-Nov-21 00:33N 49°17' W 124°02'  
2014-Nov-18 03:33N 49°16' W 124°02'1110.7
2014-Nov-18 02:33N 49°13' W 123°46'1110.5
2014-Nov-18 01:33N 49°08' W 123°32'1110.5
2014-Nov-18 00:33N 49°03' W 123°18'10 9.9
2014-Nov-17 23:33N 48°56' W 123°07'9 9.0
2014-Nov-17 22:33N 48°51' W 122°57'10 9.6
2014-Nov-17 21:33N 48°44' W 122°45'1010.3
2014-Nov-17 20:33N 48°34' W 122°45'1211.7
2014-Nov-17 19:33N 48°23' W 122°45'1110.0
2014-Nov-17 18:28N 48°12' W 122°47'9 9.4
2014-Nov-17 17:30N 48°05' W 122°38'1010.2
2014-Nov-17 16:34N 47°55' W 122°38'7 7.2
2014-Nov-17 15:33N 47°48' W 122°41'5 4.8
2014-Nov-17 14:33N 47°44' W 122°44'  
Track history (hours):
 
Tides and Currents Weather Stations Pressure Air Temp Water Temp Dewpoint Dewpoint Depression Visibility Wind Speed Wind Dir Waves Ship Positions

Battle Point

Last reported at 2014-Nov-23 02:20 UTC. Time now 2014-Nov-27 22:01 UTC.
Position N 47°45' W 122°45'.

Length 57 m; draft 3.2 m.

MMSI: 369970254.

Date/timePositionNaut miles runAvg speedWind from/ knotsBaromVisibWave heightAir tempDewpointWater temp
2014-Nov-23 02:20N 47°45' W 122°45'7 9.6
2014-Nov-23 01:33N 47°51' W 122°38'8 7.8
2014-Nov-23 00:33N 47°59' W 122°38'1110.2
2014-Nov-22 23:31N 48°09' W 122°44'9 9.8
2014-Nov-22 22:33N 48°18' W 122°48'1010.4
2014-Nov-22 21:33N 48°28' W 122°44'1010.5
2014-Nov-22 20:34N 48°38' W 122°44'10 9.8
2014-Nov-22 19:33N 48°47' W 122°52'1110.9
2014-Nov-22 18:33N 48°53' W 123°06'1110.8
2014-Nov-22 17:33N 48°60' W 123°18'1111.2
2014-Nov-22 16:33N 49°07' W 123°32'1010.1
2014-Nov-22 15:33N 49°12' W 123°44'1110.7
2014-Nov-22 14:32N 49°15' W 124°00'3 0.1
2014-Nov-21 03:33N 49°16' W 124°06'6 5.7
2014-Nov-21 02:32N 49°19' W 123°58'0 0.0
2014-Nov-21 01:20N 49°19' W 123°58'3 4.2
2014-Nov-21 00:33N 49°17' W 124°02'  
2014-Nov-18 03:33N 49°16' W 124°02'1110.7
2014-Nov-18 02:33N 49°13' W 123°46'1110.5
2014-Nov-18 01:33N 49°08' W 123°32'1110.5
2014-Nov-18 00:33N 49°03' W 123°18'10 9.9
2014-Nov-17 23:33N 48°56' W 123°07'9 9.0
2014-Nov-17 22:33N 48°51' W 122°57'10 9.6
2014-Nov-17 21:33N 48°44' W 122°45'1010.3
2014-Nov-17 20:33N 48°34' W 122°45'1211.7
2014-Nov-17 19:33N 48°23' W 122°45'1110.0
2014-Nov-17 18:28N 48°12' W 122°47'9 9.4
2014-Nov-17 17:30N 48°05' W 122°38'1010.2
2014-Nov-17 16:34N 47°55' W 122°38'7 7.2
2014-Nov-17 15:33N 47°48' W 122°41'5 4.8
2014-Nov-17 14:33N 47°44' W 122°44'  

Dump ship's entire track history